createdAt,value
2023-01-29T00:00:22.225Z,2.16
2023-01-29T00:02:48.939Z,1.95
2023-01-29T00:05:31.011Z,1.94
2023-01-29T00:07:57.740Z,2.17
2023-01-29T00:10:27.442Z,2.01
2023-01-29T00:12:54.252Z,2.05
2023-01-29T00:15:21.073Z,2.06
2023-01-29T00:17:47.613Z,1.75
2023-01-29T00:20:14.619Z,2.05
2023-01-29T00:22:41.449Z,2.06
2023-01-29T00:25:08.927Z,2.12
2023-01-29T00:27:35.486Z,2.24
2023-01-29T00:30:13.195Z,2.04
2023-01-29T00:32:40.827Z,2.30
2023-01-29T00:35:09.105Z,2.12
2023-01-29T00:37:36.075Z,2.11
2023-01-29T00:40:03.502Z,2.02
2023-01-29T00:42:48.788Z,2.28
2023-01-29T00:45:15.402Z,2.15
2023-01-29T00:47:41.977Z,2.30
2023-01-29T00:50:11.437Z,2.30
2023-01-29T00:52:40.862Z,2.23
2023-01-29T00:55:09.917Z,2.57
2023-01-29T00:57:37.402Z,2.12
2023-01-29T01:00:07.574Z,2.20
2023-01-29T01:03:12.723Z,2.16
2023-01-29T01:05:39.489Z,2.32
2023-01-29T01:08:26.199Z,2.49
2023-01-29T01:10:59.431Z,2.28
2023-01-29T01:13:25.996Z,2.31
2023-01-29T01:15:52.824Z,2.06
2023-01-29T01:18:22.367Z,2.07
2023-01-29T01:20:51.680Z,2.13
2023-01-29T01:23:20.169Z,2.33
2023-01-29T01:25:46.808Z,2.36
2023-01-29T01:28:13.659Z,2.03
2023-01-29T01:30:40.304Z,2.08
2023-01-29T01:33:07.133Z,2.02
2023-01-29T01:35:33.718Z,2.10
2023-01-29T01:38:00.516Z,2.32
2023-01-29T01:40:27.205Z,2.36
2023-01-29T01:42:56.474Z,2.32
2023-01-29T01:45:32.361Z,2.32
2023-01-29T01:48:14.255Z,2.27
2023-01-29T01:50:50.876Z,2.31
2023-01-29T01:53:24.091Z,2.37
2023-01-29T01:55:58.996Z,2.30
2023-01-29T01:58:36.976Z,2.29
2023-01-29T02:01:08.987Z,2.33
2023-01-29T02:04:02.484Z,2.51
2023-01-29T02:06:49.015Z,2.26
2023-01-29T02:09:36.072Z,2.41
2023-01-29T02:12:22.721Z,2.49
2023-01-29T02:14:51.232Z,2.43
2023-01-29T02:17:20.035Z,2.62
2023-01-29T02:20:08.647Z,2.49
2023-01-29T02:22:55.189Z,2.41
2023-01-29T02:25:46.345Z,2.43
2023-01-29T02:28:36.652Z,2.39
2023-01-29T02:31:22.191Z,2.38
2023-01-29T02:34:06.807Z,2.25
2023-01-29T02:36:51.601Z,2.35
2023-01-29T02:39:44.760Z,2.39
2023-01-29T02:42:30.226Z,2.28
2023-01-29T02:45:10.418Z,2.08
2023-01-29T02:47:51.765Z,2.26
2023-01-29T02:50:24.430Z,2.52
2023-01-29T02:53:00.428Z,2.18
2023-01-29T02:55:40.251Z,2.28
2023-01-29T02:58:42.736Z,2.06
2023-01-29T03:01:39.937Z,2.29
2023-01-29T03:04:12.953Z,2.26
2023-01-29T03:06:45.177Z,2.33
2023-01-29T03:09:24.006Z,2.54
2023-01-29T03:11:54.595Z,2.22
2023-01-29T03:14:52.288Z,2.30
2023-01-29T03:17:22.861Z,2.32
2023-01-29T03:19:50.501Z,2.29
2023-01-29T03:22:21.029Z,2.48
2023-01-29T03:25:16.155Z,2.26
2023-01-29T03:28:10.602Z,2.28
2023-01-29T03:31:19.795Z,2.04
2023-01-29T03:33:54.834Z,2.12
2023-01-29T03:36:56.166Z,2.32
2023-01-29T03:39:28.149Z,2.25
2023-01-29T03:42:03.494Z,2.38
2023-01-29T03:44:52.249Z,2.29
2023-01-29T03:47:24.962Z,2.29
2023-01-29T03:50:09.351Z,2.38
2023-01-29T03:52:59.377Z,2.46
2023-01-29T03:55:42.476Z,2.47
2023-01-29T03:58:32.428Z,2.33
2023-01-29T04:01:04.828Z,2.32
2023-01-29T04:03:42.301Z,2.25
2023-01-29T04:06:20.664Z,2.46
2023-01-29T04:09:13.436Z,2.44
2023-01-29T04:11:45.396Z,2.44
2023-01-29T04:14:13.063Z,2.32
2023-01-29T04:16:44.544Z,2.19
2023-01-29T04:19:12.434Z,2.23
2023-01-29T04:21:39.726Z,2.31
2023-01-29T04:24:07.508Z,2.28
2023-01-29T04:26:57.972Z,2.48
2023-01-29T04:30:11.949Z,2.22
2023-01-29T04:32:58.075Z,2.13
2023-01-29T04:35:33.420Z,2.35
2023-01-29T04:38:22.137Z,2.16
2023-01-29T04:40:58.471Z,2.03
2023-01-29T04:43:25.242Z,1.98
2023-01-29T04:46:13.046Z,2.10
2023-01-29T04:48:58.398Z,2.30
2023-01-29T04:51:52.322Z,2.36
2023-01-29T04:54:28.021Z,2.13
2023-01-29T04:57:08.294Z,1.91
2023-01-29T04:59:46.566Z,2.01
2023-01-29T05:02:13.602Z,1.97
2023-01-29T05:04:42.577Z,2.05
2023-01-29T05:07:14.428Z,1.93
2023-01-29T05:09:44.966Z,1.95
2023-01-29T05:12:14.393Z,2.06
2023-01-29T05:14:43.426Z,1.86
2023-01-29T05:17:16.516Z,2.23
2023-01-29T05:19:43.236Z,2.24
2023-01-29T05:22:13.033Z,2.28
2023-01-29T05:24:39.878Z,2.14
2023-01-29T05:27:25.950Z,2.27
2023-01-29T05:29:52.943Z,2.25
2023-01-29T05:32:19.456Z,1.99
2023-01-29T05:34:46.871Z,1.99
2023-01-29T05:37:13.501Z,2.28
2023-01-29T05:39:40.058Z,2.01
2023-01-29T05:42:06.699Z,2.14
2023-01-29T05:44:33.538Z,2.45
2023-01-29T05:47:02.600Z,2.28
2023-01-29T05:49:29.185Z,2.05
2023-01-29T05:51:55.799Z,2.22
2023-01-29T05:54:22.410Z,2.29
2023-01-29T05:56:49.108Z,2.06
2023-01-29T05:59:16.630Z,2.30
2023-01-29T06:01:43.303Z,2.24
2023-01-29T06:04:09.874Z,2.32
2023-01-29T06:06:36.576Z,2.18
2023-01-29T06:09:03.479Z,2.42
2023-01-29T06:11:30.136Z,2.51
2023-01-29T06:13:56.781Z,2.53
2023-01-29T06:16:23.477Z,2.56
2023-01-29T06:18:50.135Z,2.56
2023-01-29T06:21:19.722Z,2.36
2023-01-29T06:23:46.828Z,2.38
2023-01-29T06:26:14.972Z,2.42
2023-01-29T06:28:42.227Z,2.56
2023-01-29T06:31:28.386Z,2.27
2023-01-29T06:33:55.831Z,2.29
2023-01-29T06:36:22.566Z,2.43
2023-01-29T06:38:49.219Z,2.36
2023-01-29T06:41:18.873Z,2.42
2023-01-29T06:43:46.650Z,2.38
2023-01-29T06:46:13.496Z,2.30
2023-01-29T06:48:40.211Z,2.28
2023-01-29T06:51:08.591Z,2.34
2023-01-29T06:53:36.346Z,2.45
2023-01-29T06:56:04.226Z,2.37
2023-01-29T06:58:30.936Z,2.28
2023-01-29T07:01:09.449Z,2.20
2023-01-29T07:03:36.825Z,2.38
2023-01-29T07:06:04.352Z,2.47
2023-01-29T07:08:30.950Z,2.55
2023-01-29T07:11:01.674Z,2.27
2023-01-29T07:13:28.987Z,2.55
2023-01-29T07:16:00.379Z,2.41
2023-01-29T07:18:30.988Z,2.45
2023-01-29T07:20:58.222Z,2.41
2023-01-29T07:23:25.881Z,2.64
2023-01-29T07:25:52.613Z,2.82
2023-01-29T07:28:20.744Z,2.87
2023-01-29T07:30:47.590Z,2.39
2023-01-29T07:33:14.237Z,2.40
2023-01-29T07:35:43.114Z,2.42
2023-01-29T07:38:11.115Z,2.74
2023-01-29T07:40:38.105Z,2.33
2023-01-29T07:43:07.009Z,2.63
2023-01-29T07:45:35.420Z,2.69
2023-01-29T07:48:04.263Z,2.41
2023-01-29T07:50:31.718Z,2.63
2023-01-29T07:52:58.611Z,2.45
2023-01-29T07:55:25.267Z,2.46
2023-01-29T07:57:56.391Z,2.84
2023-01-29T08:00:23.455Z,2.97
2023-01-29T08:02:50.103Z,3.25
2023-01-29T08:05:17.007Z,3.21
2023-01-29T08:07:44.849Z,3.25
2023-01-29T08:10:13.956Z,3.23
2023-01-29T08:12:40.504Z,3.24
2023-01-29T08:15:07.583Z,3.31
2023-01-29T08:17:34.779Z,3.41
2023-01-29T08:20:01.370Z,3.26
2023-01-29T08:22:27.976Z,3.46
2023-01-29T08:25:06.431Z,3.28
2023-01-29T08:27:34.775Z,3.50
2023-01-29T08:30:01.386Z,3.55
2023-01-29T08:32:27.998Z,3.15
2023-01-29T08:34:54.769Z,3.54
2023-01-29T08:37:21.333Z,3.33
2023-01-29T08:39:47.904Z,3.13
2023-01-29T08:42:14.665Z,3.19
2023-01-29T08:44:41.244Z,3.36
2023-01-29T08:47:08.217Z,3.52
2023-01-29T08:49:35.203Z,3.70
2023-01-29T08:52:03.132Z,3.71
2023-01-29T08:54:30.550Z,3.34
2023-01-29T08:56:57.252Z,3.21
2023-01-29T08:59:24.169Z,3.51
2023-01-29T09:01:50.790Z,3.00
2023-01-29T09:04:17.355Z,3.70
2023-01-29T09:06:43.953Z,3.68
2023-01-29T09:09:11.910Z,3.52
2023-01-29T09:11:38.796Z,3.66
2023-01-29T09:14:05.362Z,3.20
2023-01-29T09:16:31.973Z,3.67
2023-01-29T09:18:58.525Z,3.64
2023-01-29T09:21:25.088Z,3.76
2023-01-29T09:23:51.661Z,3.58
2023-01-29T09:26:18.263Z,3.39
2023-01-29T09:28:45.004Z,3.89
2023-01-29T09:31:11.607Z,3.23
2023-01-29T09:33:38.515Z,3.41
2023-01-29T09:36:05.585Z,3.52
2023-01-29T09:38:32.344Z,3.63
2023-01-29T09:41:26.382Z,3.61
2023-01-29T09:44:03.021Z,3.58
2023-01-29T09:46:40.623Z,3.83
2023-01-29T09:49:31.617Z,3.95
2023-01-29T09:52:28.368Z,3.72
2023-01-29T09:55:20.889Z,3.69
2023-01-29T09:57:51.085Z,4.36
2023-01-29T10:00:23.682Z,4.54
2023-01-29T10:03:14.931Z,4.08
2023-01-29T10:06:26.366Z,3.95
2023-01-29T10:08:55.785Z,4.32
2023-01-29T10:11:58.114Z,4.34
2023-01-29T10:14:32.863Z,4.31
2023-01-29T10:17:35.768Z,4.67
2023-01-29T10:20:02.581Z,4.62
2023-01-29T10:22:52.688Z,3.89
2023-01-29T10:25:27.491Z,4.49
2023-01-29T10:28:02.253Z,4.15
2023-01-29T10:30:33.976Z,4.29
2023-01-29T10:33:06.462Z,4.51
2023-01-29T10:35:46.032Z,5.09
2023-01-29T10:38:24.302Z,4.85
2023-01-29T10:40:55.389Z,5.03
2023-01-29T10:43:59.262Z,4.35
2023-01-29T10:46:59.998Z,3.74
2023-01-29T10:49:48.698Z,4.49
2023-01-29T10:52:50.746Z,5.08
2023-01-29T10:55:31.222Z,4.88
2023-01-29T10:57:57.801Z,4.82
2023-01-29T11:00:33.710Z,5.16
2023-01-29T11:03:26.224Z,5.60
2023-01-29T11:06:17.300Z,6.25
2023-01-29T11:08:55.166Z,5.61
2023-01-29T11:11:26.225Z,6.07
2023-01-29T11:14:07.185Z,6.23
2023-01-29T11:16:42.475Z,5.68
2023-01-29T11:19:09.241Z,6.10
2023-01-29T11:21:53.238Z,5.63
2023-01-29T11:24:19.896Z,6.16
2023-01-29T11:26:49.378Z,6.68
2023-01-29T11:29:43.123Z,6.89
2023-01-29T11:32:21.919Z,6.03
2023-01-29T11:35:06.065Z,5.29
2023-01-29T11:37:38.983Z,5.83
2023-01-29T11:40:24.031Z,6.16
2023-01-29T11:42:53.016Z,6.54
2023-01-29T11:45:32.398Z,5.90
2023-01-29T11:48:00.003Z,5.93
2023-01-29T11:50:33.085Z,5.97
2023-01-29T11:53:00.366Z,5.45
2023-01-29T11:55:40.997Z,5.65
2023-01-29T11:58:32.062Z,5.60
2023-01-29T12:00:59.939Z,5.71
2023-01-29T12:03:35.550Z,5.84
2023-01-29T12:06:18.653Z,5.84
2023-01-29T12:08:57.529Z,5.42
2023-01-29T12:11:30.202Z,5.48
2023-01-29T12:14:01.084Z,5.23
2023-01-29T12:16:40.245Z,6.48
2023-01-29T12:19:19.680Z,6.24
2023-01-29T12:21:51.042Z,5.69
2023-01-29T12:24:35.556Z,6.38
2023-01-29T12:27:34.534Z,6.12
2023-01-29T12:30:22.069Z,6.51
2023-01-29T12:33:04.374Z,5.96
2023-01-29T12:35:42.204Z,5.99
2023-01-29T12:38:17.839Z,5.49
2023-01-29T12:40:49.941Z,5.76
2023-01-29T12:43:18.858Z,5.70
2023-01-29T12:45:52.279Z,5.88
2023-01-29T12:48:49.502Z,5.89
2023-01-29T12:51:22.295Z,6.65
2023-01-29T12:54:04.075Z,6.22
2023-01-29T12:56:43.237Z,6.62
2023-01-29T12:59:38.422Z,6.77
2023-01-29T13:02:53.539Z,7.23
2023-01-29T13:05:34.199Z,7.57
2023-01-29T13:08:12.274Z,7.38
2023-01-29T13:10:43.407Z,6.97
2023-01-29T13:13:31.004Z,6.46
2023-01-29T13:16:00.196Z,6.27
2023-01-29T13:18:45.069Z,6.57
2023-01-29T13:21:22.113Z,7.22
2023-01-29T13:23:53.008Z,6.57
2023-01-29T13:26:23.734Z,6.24
2023-01-29T13:28:51.884Z,6.80
2023-01-29T13:31:35.328Z,5.56
2023-01-29T13:34:20.027Z,6.61
2023-01-29T13:36:50.151Z,6.52
2023-01-29T13:39:23.580Z,6.11
2023-01-29T13:41:52.206Z,5.72
2023-01-29T13:44:23.871Z,5.76
2023-01-29T13:46:55.815Z,6.16
2023-01-29T13:49:36.291Z,6.07
2023-01-29T13:52:34.333Z,5.61
2023-01-29T13:55:05.298Z,5.82
2023-01-29T13:57:44.104Z,5.03
2023-01-29T14:00:16.564Z,5.45
2023-01-29T14:02:43.193Z,5.30
2023-01-29T14:05:31.342Z,5.62
2023-01-29T14:08:13.576Z,6.16
2023-01-29T14:10:41.887Z,6.54
2023-01-29T14:13:21.471Z,7.06
2023-01-29T14:16:14.233Z,6.72
2023-01-29T14:18:48.324Z,7.09
2023-01-29T14:21:25.483Z,6.51
2023-01-29T14:23:54.707Z,6.07
2023-01-29T14:26:46.198Z,6.62
2023-01-29T14:29:14.541Z,6.97
2023-01-29T14:31:48.022Z,6.76
2023-01-29T14:34:31.852Z,6.58
2023-01-29T14:37:19.305Z,6.72
2023-01-29T14:39:55.903Z,6.41
2023-01-29T14:42:26.094Z,7.20
2023-01-29T14:44:55.717Z,7.62
2023-01-29T14:47:28.323Z,6.91
2023-01-29T14:49:57.326Z,7.56
2023-01-29T14:52:36.019Z,6.53
2023-01-29T14:55:09.003Z,7.17
2023-01-29T14:57:37.216Z,6.66
2023-01-29T15:00:09.540Z,6.92
2023-01-29T15:02:43.426Z,5.90
2023-01-29T15:05:28.917Z,5.55
2023-01-29T15:07:59.282Z,6.09
2023-01-29T15:10:48.423Z,6.56
2023-01-29T15:13:24.302Z,6.74
2023-01-29T15:16:09.150Z,5.81
2023-01-29T15:18:41.642Z,5.23
2023-01-29T15:21:14.638Z,4.89
2023-01-29T15:23:41.771Z,5.18
2023-01-29T15:26:17.354Z,5.49
2023-01-29T15:28:47.238Z,5.66
2023-01-29T15:31:18.462Z,5.82
2023-01-29T15:33:48.107Z,4.91
2023-01-29T15:36:22.726Z,4.36
2023-01-29T15:38:49.707Z,4.11
2023-01-29T15:41:23.646Z,4.08
2023-01-29T15:43:57.554Z,4.05
2023-01-29T15:46:34.292Z,4.27
2023-01-29T15:49:07.525Z,4.39
2023-01-29T15:51:34.838Z,4.08
2023-01-29T15:54:04.498Z,4.29
2023-01-29T15:56:33.377Z,3.99
2023-01-29T15:59:04.064Z,3.76
2023-01-29T16:01:32.376Z,3.77
2023-01-29T16:04:04.327Z,3.45
2023-01-29T16:06:38.002Z,3.31
2023-01-29T16:09:06.048Z,3.85
2023-01-29T16:11:34.477Z,4.18
2023-01-29T16:14:02.869Z,4.21
2023-01-29T16:16:29.565Z,3.80
2023-01-29T16:19:01.131Z,3.49
2023-01-29T16:21:31.162Z,3.45
2023-01-29T16:24:09.376Z,3.60
2023-01-29T16:26:43.764Z,3.70
2023-01-29T16:29:14.294Z,3.30
2023-01-29T16:31:44.849Z,3.08
2023-01-29T16:34:19.027Z,3.08
2023-01-29T16:36:47.633Z,3.17
2023-01-29T16:39:23.187Z,3.11
2023-01-29T16:42:17.369Z,2.70
2023-01-29T16:45:00.732Z,2.52
2023-01-29T16:47:33.465Z,2.49
2023-01-29T16:50:19.284Z,2.58
2023-01-29T16:53:03.584Z,2.40
2023-01-29T16:55:37.876Z,2.06
2023-01-29T16:58:20.360Z,2.36
2023-01-29T17:00:53.082Z,1.81
2023-01-29T17:03:20.164Z,1.93
2023-01-29T17:05:47.660Z,1.86
2023-01-29T17:08:25.514Z,2.06
2023-01-29T17:10:52.985Z,1.70
2023-01-29T17:13:29.013Z,1.53
2023-01-29T17:16:02.950Z,1.30
2023-01-29T17:18:30.087Z,1.46
2023-01-29T17:20:56.634Z,1.12
2023-01-29T17:23:23.473Z,0.97
2023-01-29T17:25:50.256Z,1.00
2023-01-29T17:28:18.349Z,0.78
2023-01-29T17:30:56.651Z,0.86
2023-01-29T17:33:27.147Z,0.75
2023-01-29T17:35:54.145Z,0.88
2023-01-29T17:38:26.429Z,0.60
2023-01-29T17:40:58.253Z,0.96
2023-01-29T17:43:24.932Z,0.77
2023-01-29T17:45:52.178Z,0.57
2023-01-29T17:48:29.351Z,0.87
2023-01-29T17:51:00.530Z,1.22
2023-01-29T17:53:43.234Z,1.24
2023-01-29T17:56:16.168Z,0.77
2023-01-29T17:58:43.178Z,0.60
2023-01-29T18:01:10.041Z,0.45
2023-01-29T18:03:37.115Z,0.51
2023-01-29T18:06:06.708Z,0.36
2023-01-29T18:08:35.484Z,0.41
2023-01-29T18:11:02.342Z,0.27
2023-01-29T18:13:28.965Z,0.46
2023-01-29T18:15:55.687Z,0.49
2023-01-29T18:18:24.229Z,0.49
2023-01-29T18:20:51.221Z,0.52
2023-01-29T18:23:18.119Z,0.53
2023-01-29T18:25:45.232Z,0.60
2023-01-29T18:28:19.798Z,0.61
2023-01-29T18:30:47.775Z,0.73
2023-01-29T18:33:15.825Z,0.94
2023-01-29T18:35:48.942Z,1.04
2023-01-29T18:38:16.288Z,1.12
2023-01-29T18:40:43.761Z,1.16
2023-01-29T18:43:10.403Z,1.33
2023-01-29T18:45:36.960Z,1.29
2023-01-29T18:48:03.779Z,1.24
2023-01-29T18:50:30.448Z,1.43
2023-01-29T18:52:57.292Z,1.40
2023-01-29T18:55:24.101Z,1.58
2023-01-29T18:58:28.621Z,1.83
2023-01-29T19:00:41.127Z,1.75
2023-01-29T19:03:07.893Z,1.81
2023-01-29T19:05:34.527Z,1.71
2023-01-29T19:08:02.213Z,1.97
2023-01-29T19:10:29.012Z,2.26
2023-01-29T19:12:55.607Z,2.08
2023-01-29T19:15:22.887Z,2.18
2023-01-29T19:17:50.689Z,2.49
2023-01-29T19:20:18.200Z,2.64
2023-01-29T19:22:44.763Z,2.50
2023-01-29T19:25:11.923Z,2.63
2023-01-29T19:27:38.735Z,2.49
2023-01-29T19:30:05.848Z,2.36
2023-01-29T19:32:32.796Z,2.14
2023-01-29T19:34:59.470Z,2.08
2023-01-29T19:37:26.176Z,2.08
2023-01-29T19:39:53.830Z,2.20
2023-01-29T19:42:20.940Z,2.13
2023-01-29T19:44:47.960Z,2.07
2023-01-29T19:47:14.724Z,1.89
2023-01-29T19:49:41.447Z,1.99
2023-01-29T19:52:14.789Z,1.78
2023-01-29T19:54:46.101Z,1.71
2023-01-29T19:57:12.726Z,1.30
2023-01-29T19:59:39.467Z,1.22
2023-01-29T20:02:06.444Z,1.42
2023-01-29T20:04:33.296Z,1.32
2023-01-29T20:06:59.860Z,1.09
2023-01-29T20:09:26.488Z,0.86
2023-01-29T20:11:53.010Z,0.64
2023-01-29T20:14:19.895Z,0.56
2023-01-29T20:16:46.474Z,0.66
2023-01-29T20:19:15.082Z,0.38
2023-01-29T20:21:45.443Z,0.18
2023-01-29T20:24:13.161Z,0.00
2023-01-29T20:26:39.921Z,-0.05
2023-01-29T20:29:06.667Z,-0.09
2023-01-29T20:31:33.875Z,-0.29
2023-01-29T20:34:00.632Z,-0.21
2023-01-29T20:36:27.783Z,-0.04
2023-01-29T20:38:54.363Z,-0.13
2023-01-29T20:41:21.372Z,-0.28
2023-01-29T20:43:50.360Z,-0.21
2023-01-29T20:46:17.769Z,0.20
2023-01-29T20:48:44.513Z,-0.07
2023-01-29T20:51:17.260Z,-0.28
2023-01-29T20:53:45.918Z,-0.55
2023-01-29T20:56:14.376Z,-0.50
2023-01-29T20:58:41.452Z,-0.46
2023-01-29T21:01:10.371Z,-0.52
2023-01-29T21:03:37.786Z,-0.67
2023-01-29T21:06:04.697Z,-0.75
2023-01-29T21:08:31.343Z,-0.81
2023-01-29T21:10:57.933Z,-0.81
2023-01-29T21:13:24.737Z,-0.79
2023-01-29T21:15:51.385Z,-0.77
2023-01-29T21:18:18.309Z,-0.92
2023-01-29T21:20:44.908Z,-0.66
2023-01-29T21:23:11.507Z,-0.78
2023-01-29T21:25:38.811Z,-0.88
2023-01-29T21:28:06.151Z,-1.19
2023-01-29T21:30:32.918Z,-1.04
2023-01-29T21:32:59.909Z,-0.93
2023-01-29T21:35:26.518Z,-1.08
2023-01-29T21:37:53.094Z,-1.19
2023-01-29T21:40:21.309Z,-1.17
2023-01-29T21:43:07.186Z,-1.21
2023-01-29T21:45:35.602Z,-1.31
2023-01-29T21:48:02.443Z,-1.22
2023-01-29T21:50:29.416Z,-1.21
2023-01-29T21:52:55.988Z,-1.12
2023-01-29T21:55:22.754Z,-1.25
2023-01-29T21:57:49.473Z,-1.33
2023-01-29T22:00:16.961Z,-1.27
2023-01-29T22:02:44.413Z,-1.25
2023-01-29T22:05:19.484Z,-1.37
2023-01-29T22:07:47.199Z,-1.35
2023-01-29T22:10:14.802Z,-1.28
2023-01-29T22:12:41.753Z,-1.34
2023-01-29T22:15:09.366Z,-1.22
2023-01-29T22:17:36.128Z,-1.06
2023-01-29T22:20:03.028Z,-1.22
2023-01-29T22:22:29.552Z,-1.31
2023-01-29T22:24:58.384Z,-1.44
2023-01-29T22:27:25.095Z,-1.50
2023-01-29T22:29:51.807Z,-1.67
2023-01-29T22:32:18.826Z,-1.36
2023-01-29T22:34:45.683Z,-1.18
2023-01-29T22:37:12.236Z,-1.15
2023-01-29T22:39:39.113Z,-1.13
2023-01-29T22:42:05.671Z,-1.08
2023-01-29T22:44:32.297Z,-1.10
2023-01-29T22:46:59.123Z,-1.06
2023-01-29T22:49:26.439Z,-1.14
2023-01-29T22:52:10.203Z,-1.28
2023-01-29T22:54:42.145Z,-1.25
2023-01-29T22:57:14.483Z,-1.22
2023-01-29T22:59:41.107Z,-1.28
2023-01-29T23:02:08.600Z,-1.30
2023-01-29T23:04:35.370Z,-1.26
2023-01-29T23:07:02.305Z,-1.24
2023-01-29T23:09:29.181Z,-1.12
2023-01-29T23:11:55.930Z,-1.59
2023-01-29T23:14:22.514Z,-1.52
2023-01-29T23:16:49.041Z,-1.63
2023-01-29T23:19:15.731Z,-1.56
2023-01-29T23:21:42.452Z,-1.74
2023-01-29T23:24:09.658Z,-1.70
2023-01-29T23:26:54.821Z,-1.46
2023-01-29T23:29:21.491Z,-1.37
2023-01-29T23:31:48.316Z,-1.24
2023-01-29T23:34:15.386Z,-1.59
2023-01-29T23:36:42.299Z,-1.67
2023-01-29T23:39:09.423Z,-1.56
2023-01-29T23:41:36.040Z,-1.67
2023-01-29T23:44:02.662Z,-1.43
2023-01-29T23:46:29.318Z,-1.23
2023-01-29T23:48:55.972Z,-1.44
2023-01-29T23:51:22.866Z,-1.36
2023-01-29T23:53:49.498Z,-1.44
2023-01-29T23:56:16.382Z,-1.81
2023-01-29T23:58:43.959Z,-2.01
